sensor_id;sensor_type;location;lat;lon;timestamp;temperature;humidity
73254;DHT22;61474;50.834;4.552;2022-09-13T00:00:16;24.40;54.10
73254;DHT22;61474;50.834;4.552;2022-09-13T00:02:41;24.40;54.10
73254;DHT22;61474;50.834;4.552;2022-09-13T00:05:07;24.40;54.00
73254;DHT22;61474;50.834;4.552;2022-09-13T00:07:32;24.40;53.80
73254;DHT22;61474;50.834;4.552;2022-09-13T00:09:58;24.70;53.00
73254;DHT22;61474;50.834;4.552;2022-09-13T00:12:23;24.80;52.60
73254;DHT22;61474;50.834;4.552;2022-09-13T00:14:49;24.80;52.50
73254;DHT22;61474;50.834;4.552;2022-09-13T00:17:14;24.70;52.50
73254;DHT22;61474;50.834;4.552;2022-09-13T00:19:40;24.70;52.80
73254;DHT22;61474;50.834;4.552;2022-09-13T00:22:06;24.50;53.50
73254;DHT22;61474;50.834;4.552;2022-09-13T00:24:32;24.40;53.90
73254;DHT22;61474;50.834;4.552;2022-09-13T00:26:58;24.40;53.70
73254;DHT22;61474;50.834;4.552;2022-09-13T00:29:24;24.50;53.50
73254;DHT22;61474;50.834;4.552;2022-09-13T00:31:50;24.70;53.00
73254;DHT22;61474;50.834;4.552;2022-09-13T00:34:15;24.80;52.90
73254;DHT22;61474;50.834;4.552;2022-09-13T00:36:41;24.80;52.70
73254;DHT22;61474;50.834;4.552;2022-09-13T00:39:07;24.80;52.60
73254;DHT22;61474;50.834;4.552;2022-09-13T00:41:33;24.70;53.70
73254;DHT22;61474;50.834;4.552;2022-09-13T00:43:59;24.50;53.60
73254;DHT22;61474;50.834;4.552;2022-09-13T00:49:00;24.40;53.90
73254;DHT22;61474;50.834;4.552;2022-09-13T00:51:26;24.50;53.70
73254;DHT22;61474;50.834;4.552;2022-09-13T00:53:52;24.70;53.10
73254;DHT22;61474;50.834;4.552;2022-09-13T00:56:42;24.60;53.40
73254;DHT22;61474;50.834;4.552;2022-09-13T00:59:06;24.50;53.70
73254;DHT22;61474;50.834;4.552;2022-09-13T01:01:36;24.50;54.10
73254;DHT22;61474;50.834;4.552;2022-09-13T01:04:04;24.40;54.30
73254;DHT22;61474;50.834;4.552;2022-09-13T01:06:31;24.40;54.20
73254;DHT22;61474;50.834;4.552;2022-09-13T01:08:57;24.60;53.90
73254;DHT22;61474;50.834;4.552;2022-09-13T01:11:29;24.50;54.30
73254;DHT22;61474;50.834;4.552;2022-09-13T01:13:56;24.40;54.10
73254;DHT22;61474;50.834;4.552;2022-09-13T01:16:22;24.60;53.60
73254;DHT22;61474;50.834;4.552;2022-09-13T01:18:48;24.70;53.30
73254;DHT22;61474;50.834;4.552;2022-09-13T01:21:23;24.70;53.10
73254;DHT22;61474;50.834;4.552;2022-09-13T01:29:30;24.40;54.40
73254;DHT22;61474;50.834;4.552;2022-09-13T01:37:22;24.30;54.70
73254;DHT22;61474;50.834;4.552;2022-09-13T01:40:03;24.30;54.70
73254;DHT22;61474;50.834;4.552;2022-09-13T01:47:32;24.30;54.50
73254;DHT22;61474;50.834;4.552;2022-09-13T01:58:14;24.30;54.20
73254;DHT22;61474;50.834;4.552;2022-09-13T02:00:53;24.30;54.20
73254;DHT22;61474;50.834;4.552;2022-09-13T02:03:22;24.30;54.10
73254;DHT22;61474;50.834;4.552;2022-09-13T02:05:56;24.30;54.10
73254;DHT22;61474;50.834;4.552;2022-09-13T02:08:24;24.30;54.10
73254;DHT22;61474;50.834;4.552;2022-09-13T02:11:00;24.30;53.90
73254;DHT22;61474;50.834;4.552;2022-09-13T02:13:30;24.20;53.80
73254;DHT22;61474;50.834;4.552;2022-09-13T02:16:00;24.30;53.80
73254;DHT22;61474;50.834;4.552;2022-09-13T02:18:31;24.30;53.70
73254;DHT22;61474;50.834;4.552;2022-09-13T02:21:08;24.30;53.60
73254;DHT22;61474;50.834;4.552;2022-09-13T02:23:36;24.30;53.50
73254;DHT22;61474;50.834;4.552;2022-09-13T02:26:03;24.30;53.40
73254;DHT22;61474;50.834;4.552;2022-09-13T02:28:39;24.20;53.40
73254;DHT22;61474;50.834;4.552;2022-09-13T02:31:07;24.20;53.30
73254;DHT22;61474;50.834;4.552;2022-09-13T02:33:38;24.20;53.20
73254;DHT22;61474;50.834;4.552;2022-09-13T02:36:06;24.20;53.30
73254;DHT22;61474;50.834;4.552;2022-09-13T02:38:34;24.20;53.10
73254;DHT22;61474;50.834;4.552;2022-09-13T02:41:09;24.10;53.10
73254;DHT22;61474;50.834;4.552;2022-09-13T02:43:40;24.10;53.00
73254;DHT22;61474;50.834;4.552;2022-09-13T02:46:13;24.20;52.90
73254;DHT22;61474;50.834;4.552;2022-09-13T02:51:32;24.10;52.90
73254;DHT22;61474;50.834;4.552;2022-09-13T02:59:25;24.20;52.80
73254;DHT22;61474;50.834;4.552;2022-09-13T03:04:46;24.50;51.70
73254;DHT22;61474;50.834;4.552;2022-09-13T03:07:12;24.60;51.40
73254;DHT22;61474;50.834;4.552;2022-09-13T03:09:39;24.60;51.40
73254;DHT22;61474;50.834;4.552;2022-09-13T03:14:34;24.40;51.80
73254;DHT22;61474;50.834;4.552;2022-09-13T03:17:06;24.50;51.60
73254;DHT22;61474;50.834;4.552;2022-09-13T03:22:14;24.50;51.40
73254;DHT22;61474;50.834;4.552;2022-09-13T03:29:58;24.50;51.40
73254;DHT22;61474;50.834;4.552;2022-09-13T03:32:46;24.50;51.20
73254;DHT22;61474;50.834;4.552;2022-09-13T03:35:17;24.50;51.30
73254;DHT22;61474;50.834;4.552;2022-09-13T03:40:21;24.50;51.20
73254;DHT22;61474;50.834;4.552;2022-09-13T03:42:54;24.40;51.20
73254;DHT22;61474;50.834;4.552;2022-09-13T03:45:23;24.50;51.40
73254;DHT22;61474;50.834;4.552;2022-09-13T03:47:50;24.50;51.40
73254;DHT22;61474;50.834;4.552;2022-09-13T03:50:17;24.30;51.80
73254;DHT22;61474;50.834;4.552;2022-09-13T03:52:44;24.30;52.10
73254;DHT22;61474;50.834;4.552;2022-09-13T03:55:11;24.40;51.70
73254;DHT22;61474;50.834;4.552;2022-09-13T03:57:37;24.30;52.00
73254;DHT22;61474;50.834;4.552;2022-09-13T04:00:02;24.20;52.40
73254;DHT22;61474;50.834;4.552;2022-09-13T04:02:28;24.30;52.10
73254;DHT22;61474;50.834;4.552;2022-09-13T04:04:53;24.20;52.30
73254;DHT22;61474;50.834;4.552;2022-09-13T04:07:20;24.20;52.60
73254;DHT22;61474;50.834;4.552;2022-09-13T04:09:46;24.20;52.70
73254;DHT22;61474;50.834;4.552;2022-09-13T04:12:12;24.10;52.90
73254;DHT22;61474;50.834;4.552;2022-09-13T04:14:38;24.20;52.90
73254;DHT22;61474;50.834;4.552;2022-09-13T04:17:04;24.30;52.80
73254;DHT22;61474;50.834;4.552;2022-09-13T04:19:30;24.20;52.90
73254;DHT22;61474;50.834;4.552;2022-09-13T04:21:56;24.20;52.90
73254;DHT22;61474;50.834;4.552;2022-09-13T04:24:23;24.30;52.70
73254;DHT22;61474;50.834;4.552;2022-09-13T04:26:49;24.40;52.20
73254;DHT22;61474;50.834;4.552;2022-09-13T04:29:24;24.50;52.10
73254;DHT22;61474;50.834;4.552;2022-09-13T04:31:50;24.50;51.80
73254;DHT22;61474;50.834;4.552;2022-09-13T04:34:16;24.50;51.80
73254;DHT22;61474;50.834;4.552;2022-09-13T04:36:42;24.50;51.80
73254;DHT22;61474;50.834;4.552;2022-09-13T04:39:08;24.50;51.80
73254;DHT22;61474;50.834;4.552;2022-09-13T04:41:33;24.40;52.00
73254;DHT22;61474;50.834;4.552;2022-09-13T04:43:59;24.40;51.90
73254;DHT22;61474;50.834;4.552;2022-09-13T04:46:25;24.40;52.00
73254;DHT22;61474;50.834;4.552;2022-09-13T04:48:50;24.40;52.00
73254;DHT22;61474;50.834;4.552;2022-09-13T04:51:16;24.40;51.70
73254;DHT22;61474;50.834;4.552;2022-09-13T04:53:43;24.40;51.80
73254;DHT22;61474;50.834;4.552;2022-09-13T04:56:08;24.40;51.50
73254;DHT22;61474;50.834;4.552;2022-09-13T04:58:35;24.30;51.50
73254;DHT22;61474;50.834;4.552;2022-09-13T05:01:01;24.20;52.30
73254;DHT22;61474;50.834;4.552;2022-09-13T05:03:30;24.20;52.30
73254;DHT22;61474;50.834;4.552;2022-09-13T05:06:02;24.10;52.30
73254;DHT22;61474;50.834;4.552;2022-09-13T05:08:28;24.10;52.20
73254;DHT22;61474;50.834;4.552;2022-09-13T05:10:53;24.10;52.10
73254;DHT22;61474;50.834;4.552;2022-09-13T05:13:19;24.20;52.10
73254;DHT22;61474;50.834;4.552;2022-09-13T05:15:45;24.10;52.00
73254;DHT22;61474;50.834;4.552;2022-09-13T05:18:11;24.10;52.30
73254;DHT22;61474;50.834;4.552;2022-09-13T05:20:36;24.00;52.40
73254;DHT22;61474;50.834;4.552;2022-09-13T05:23:02;24.00;52.50
73254;DHT22;61474;50.834;4.552;2022-09-13T05:25:27;24.10;52.20
73254;DHT22;61474;50.834;4.552;2022-09-13T05:27:53;24.10;52.20
73254;DHT22;61474;50.834;4.552;2022-09-13T05:30:18;24.00;52.40
73254;DHT22;61474;50.834;4.552;2022-09-13T05:32:44;24.00;52.40
73254;DHT22;61474;50.834;4.552;2022-09-13T05:35:09;24.00;52.50
73254;DHT22;61474;50.834;4.552;2022-09-13T05:37:35;24.00;52.40
73254;DHT22;61474;50.834;4.552;2022-09-13T05:40:01;24.00;52.20
73254;DHT22;61474;50.834;4.552;2022-09-13T05:42:26;23.90;52.10
73254;DHT22;61474;50.834;4.552;2022-09-13T05:44:51;24.00;52.20
73254;DHT22;61474;50.834;4.552;2022-09-13T05:47:17;24.00;51.90
73254;DHT22;61474;50.834;4.552;2022-09-13T05:49:42;23.60;52.90
73254;DHT22;61474;50.834;4.552;2022-09-13T05:52:08;23.40;53.30
73254;DHT22;61474;50.834;4.552;2022-09-13T05:54:33;23.20;53.90
73254;DHT22;61474;50.834;4.552;2022-09-13T05:56:59;23.10;53.90
73254;DHT22;61474;50.834;4.552;2022-09-13T05:59:25;23.30;53.50
73254;DHT22;61474;50.834;4.552;2022-09-13T06:01:50;23.50;52.80
73254;DHT22;61474;50.834;4.552;2022-09-13T06:04:15;23.40;53.20
73254;DHT22;61474;50.834;4.552;2022-09-13T06:06:41;23.50;52.80
73254;DHT22;61474;50.834;4.552;2022-09-13T06:09:06;23.60;52.50
73254;DHT22;61474;50.834;4.552;2022-09-13T06:11:33;23.60;52.30
73254;DHT22;61474;50.834;4.552;2022-09-13T06:13:59;23.50;52.50
73254;DHT22;61474;50.834;4.552;2022-09-13T06:16:24;23.40;52.70
73254;DHT22;61474;50.834;4.552;2022-09-13T06:18:49;23.20;53.20
73254;DHT22;61474;50.834;4.552;2022-09-13T06:21:16;23.30;53.10
73254;DHT22;61474;50.834;4.552;2022-09-13T06:23:45;23.50;52.70
73254;DHT22;61474;50.834;4.552;2022-09-13T06:26:13;23.60;52.50
73254;DHT22;61474;50.834;4.552;2022-09-13T06:28:38;23.60;52.30
73254;DHT22;61474;50.834;4.552;2022-09-13T06:31:08;23.50;52.50
73254;DHT22;61474;50.834;4.552;2022-09-13T06:33:35;23.50;52.80
73254;DHT22;61474;50.834;4.552;2022-09-13T06:36:00;23.60;52.30
73254;DHT22;61474;50.834;4.552;2022-09-13T06:38:27;23.50;52.60
73254;DHT22;61474;50.834;4.552;2022-09-13T06:41:25;23.50;52.60
73254;DHT22;61474;50.834;4.552;2022-09-13T06:43:44;23.50;52.50
73254;DHT22;61474;50.834;4.552;2022-09-13T06:46:13;23.60;52.60
73254;DHT22;61474;50.834;4.552;2022-09-13T06:48:40;23.60;52.40
73254;DHT22;61474;50.834;4.552;2022-09-13T06:51:07;23.70;52.20
73254;DHT22;61474;50.834;4.552;2022-09-13T06:53:33;23.70;52.20
73254;DHT22;61474;50.834;4.552;2022-09-13T06:56:09;23.80;52.10
73254;DHT22;61474;50.834;4.552;2022-09-13T06:58:35;23.80;52.00
73254;DHT22;61474;50.834;4.552;2022-09-13T07:03:40;23.80;52.30
73254;DHT22;61474;50.834;4.552;2022-09-13T07:06:09;23.70;53.10
73254;DHT22;61474;50.834;4.552;2022-09-13T07:08:35;23.70;52.50
73254;DHT22;61474;50.834;4.552;2022-09-13T07:11:00;23.70;52.40
73254;DHT22;61474;50.834;4.552;2022-09-13T07:13:26;23.40;53.40
73254;DHT22;61474;50.834;4.552;2022-09-13T07:15:51;23.70;52.50
73254;DHT22;61474;50.834;4.552;2022-09-13T07:18:17;23.70;53.20
73254;DHT22;61474;50.834;4.552;2022-09-13T07:20:42;23.70;52.50
73254;DHT22;61474;50.834;4.552;2022-09-13T07:23:08;23.70;52.50
73254;DHT22;61474;50.834;4.552;2022-09-13T07:25:33;23.80;52.30
73254;DHT22;61474;50.834;4.552;2022-09-13T07:27:58;23.60;52.70
73254;DHT22;61474;50.834;4.552;2022-09-13T07:30:24;23.40;52.80
73254;DHT22;61474;50.834;4.552;2022-09-13T07:32:50;23.30;53.30
73254;DHT22;61474;50.834;4.552;2022-09-13T07:35:16;23.50;52.90
73254;DHT22;61474;50.834;4.552;2022-09-13T07:37:41;23.40;52.80
73254;DHT22;61474;50.834;4.552;2022-09-13T07:40:09;23.30;53.50
73254;DHT22;61474;50.834;4.552;2022-09-13T07:42:35;23.40;53.90
73254;DHT22;61474;50.834;4.552;2022-09-13T07:45:00;23.40;53.10
73254;DHT22;61474;50.834;4.552;2022-09-13T07:47:26;23.60;52.60
73254;DHT22;61474;50.834;4.552;2022-09-13T07:49:51;23.60;52.50
73254;DHT22;61474;50.834;4.552;2022-09-13T07:52:17;23.60;52.50
73254;DHT22;61474;50.834;4.552;2022-09-13T07:54:42;23.60;52.50
73254;DHT22;61474;50.834;4.552;2022-09-13T07:57:07;23.60;52.60
73254;DHT22;61474;50.834;4.552;2022-09-13T07:59:33;23.60;52.30
73254;DHT22;61474;50.834;4.552;2022-09-13T08:01:58;23.50;52.70
73254;DHT22;61474;50.834;4.552;2022-09-13T08:04:24;23.50;52.90
73254;DHT22;61474;50.834;4.552;2022-09-13T08:06:50;23.50;53.10
73254;DHT22;61474;50.834;4.552;2022-09-13T08:09:15;23.60;53.00
73254;DHT22;61474;50.834;4.552;2022-09-13T08:11:42;23.70;53.10
73254;DHT22;61474;50.834;4.552;2022-09-13T08:14:09;23.60;52.30
73254;DHT22;61474;50.834;4.552;2022-09-13T08:16:35;23.70;52.40
73254;DHT22;61474;50.834;4.552;2022-09-13T08:19:01;23.70;52.20
73254;DHT22;61474;50.834;4.552;2022-09-13T08:21:30;23.70;52.40
73254;DHT22;61474;50.834;4.552;2022-09-13T08:23:56;23.80;52.10
73254;DHT22;61474;50.834;4.552;2022-09-13T08:26:25;23.60;52.20
73254;DHT22;61474;50.834;4.552;2022-09-13T08:28:54;23.50;52.60
73254;DHT22;61474;50.834;4.552;2022-09-13T08:31:19;23.40;52.70
73254;DHT22;61474;50.834;4.552;2022-09-13T08:33:46;23.60;52.50
73254;DHT22;61474;50.834;4.552;2022-09-13T08:36:15;23.70;52.40
73254;DHT22;61474;50.834;4.552;2022-09-13T08:38:47;23.70;52.20
73254;DHT22;61474;50.834;4.552;2022-09-13T08:43:50;23.80;52.30
73254;DHT22;61474;50.834;4.552;2022-09-13T08:46:25;23.80;52.10
73254;DHT22;61474;50.834;4.552;2022-09-13T08:48:54;23.90;52.20
73254;DHT22;61474;50.834;4.552;2022-09-13T08:51:28;24.00;51.80
73254;DHT22;61474;50.834;4.552;2022-09-13T08:53:54;24.00;52.00
73254;DHT22;61474;50.834;4.552;2022-09-13T09:06:44;24.00;52.40
73254;DHT22;61474;50.834;4.552;2022-09-13T09:09:12;24.10;52.50
73254;DHT22;61474;50.834;4.552;2022-09-13T09:16:39;24.30;52.30
73254;DHT22;61474;50.834;4.552;2022-09-13T09:19:08;24.20;52.50
73254;DHT22;61474;50.834;4.552;2022-09-13T09:21:36;24.20;52.00
73254;DHT22;61474;50.834;4.552;2022-09-13T09:24:01;24.30;51.80
73254;DHT22;61474;50.834;4.552;2022-09-13T09:26:29;24.20;52.20
73254;DHT22;61474;50.834;4.552;2022-09-13T09:29:07;24.30;52.10
73254;DHT22;61474;50.834;4.552;2022-09-13T09:31:38;24.30;52.30
73254;DHT22;61474;50.834;4.552;2022-09-13T09:39:22;24.20;52.50
73254;DHT22;61474;50.834;4.552;2022-09-13T09:41:50;24.20;52.60
73254;DHT22;61474;50.834;4.552;2022-09-13T09:44:20;24.30;52.60
73254;DHT22;61474;50.834;4.552;2022-09-13T09:46:47;24.30;52.50
73254;DHT22;61474;50.834;4.552;2022-09-13T09:49:26;24.30;52.50
73254;DHT22;61474;50.834;4.552;2022-09-13T09:52:13;24.40;52.60
73254;DHT22;61474;50.834;4.552;2022-09-13T09:54:39;24.30;52.60
73254;DHT22;61474;50.834;4.552;2022-09-13T09:57:06;24.30;52.90
73254;DHT22;61474;50.834;4.552;2022-09-13T09:59:32;24.30;53.00
73254;DHT22;61474;50.834;4.552;2022-09-13T10:02:01;24.30;53.10
73254;DHT22;61474;50.834;4.552;2022-09-13T10:04:32;24.40;52.90
73254;DHT22;61474;50.834;4.552;2022-09-13T10:07:16;24.30;53.00
73254;DHT22;61474;50.834;4.552;2022-09-13T10:09:59;24.30;53.30
73254;DHT22;61474;50.834;4.552;2022-09-13T10:12:27;24.30;53.60
73254;DHT22;61474;50.834;4.552;2022-09-13T10:15:02;24.30;53.20
73254;DHT22;61474;50.834;4.552;2022-09-13T10:17:27;24.30;53.30
73254;DHT22;61474;50.834;4.552;2022-09-13T10:20:00;24.30;53.50
73254;DHT22;61474;50.834;4.552;2022-09-13T10:22:27;24.30;53.30
73254;DHT22;61474;50.834;4.552;2022-09-13T10:24:52;24.30;53.50
73254;DHT22;61474;50.834;4.552;2022-09-13T10:27:25;24.30;53.60
73254;DHT22;61474;50.834;4.552;2022-09-13T10:29:54;24.30;53.40
73254;DHT22;61474;50.834;4.552;2022-09-13T10:32:24;24.30;53.50
73254;DHT22;61474;50.834;4.552;2022-09-13T10:34:49;24.30;53.30
73254;DHT22;61474;50.834;4.552;2022-09-13T10:37:16;24.30;53.50
73254;DHT22;61474;50.834;4.552;2022-09-13T10:39:50;24.30;53.80
73254;DHT22;61474;50.834;4.552;2022-09-13T10:42:18;24.30;53.40
73254;DHT22;61474;50.834;4.552;2022-09-13T10:44:49;24.30;53.50
73254;DHT22;61474;50.834;4.552;2022-09-13T10:47:18;24.30;54.10
73254;DHT22;61474;50.834;4.552;2022-09-13T10:49:47;24.30;53.40
73254;DHT22;61474;50.834;4.552;2022-09-13T10:54:49;24.30;53.50
73254;DHT22;61474;50.834;4.552;2022-09-13T10:58:15;24.30;53.50
73254;DHT22;61474;50.834;4.552;2022-09-13T11:00:33;24.30;53.70
73254;DHT22;61474;50.834;4.552;2022-09-13T11:05:59;24.40;53.90
73254;DHT22;61474;50.834;4.552;2022-09-13T11:21:22;24.30;54.30
73254;DHT22;61474;50.834;4.552;2022-09-13T11:23:58;24.30;54.20
73254;DHT22;61474;50.834;4.552;2022-09-13T11:26:28;24.40;54.50
73254;DHT22;61474;50.834;4.552;2022-09-13T11:31:29;24.30;54.20
73254;DHT22;61474;50.834;4.552;2022-09-13T11:34:06;24.40;54.30
73254;DHT22;61474;50.834;4.552;2022-09-13T11:36:40;24.40;54.30
73254;DHT22;61474;50.834;4.552;2022-09-13T11:41:38;24.50;53.90
73254;DHT22;61474;50.834;4.552;2022-09-13T11:46:43;24.50;54.00
73254;DHT22;61474;50.834;4.552;2022-09-13T11:57:37;24.40;54.00
73254;DHT22;61474;50.834;4.552;2022-09-13T12:05:17;24.40;54.00
73254;DHT22;61474;50.834;4.552;2022-09-13T12:10:21;24.50;54.30
73254;DHT22;61474;50.834;4.552;2022-09-13T12:12:49;24.40;54.10
73254;DHT22;61474;50.834;4.552;2022-09-13T12:15:25;24.40;53.90
73254;DHT22;61474;50.834;4.552;2022-09-13T12:17:54;24.40;53.90
73254;DHT22;61474;50.834;4.552;2022-09-13T12:26:12;24.40;53.80
73254;DHT22;61474;50.834;4.552;2022-09-13T12:28:39;24.50;53.90
73254;DHT22;61474;50.834;4.552;2022-09-13T12:31:12;24.40;54.40
73254;DHT22;61474;50.834;4.552;2022-09-13T12:33:40;24.40;53.30
73254;DHT22;61474;50.834;4.552;2022-09-13T12:41:29;24.40;54.00
73254;DHT22;61474;50.834;4.552;2022-09-13T12:52:02;24.50;54.30
73254;DHT22;61474;50.834;4.552;2022-09-13T13:04:49;24.40;54.20
73254;DHT22;61474;50.834;4.552;2022-09-13T13:07:19;24.40;55.00
73254;DHT22;61474;50.834;4.552;2022-09-13T13:09:49;24.40;55.10
73254;DHT22;61474;50.834;4.552;2022-09-13T13:14:49;24.50;54.90
73254;DHT22;61474;50.834;4.552;2022-09-13T13:17:33;24.50;55.50
73254;DHT22;61474;50.834;4.552;2022-09-13T13:20:37;24.50;54.10
73254;DHT22;61474;50.834;4.552;2022-09-13T13:22:47;24.60;54.70
73254;DHT22;61474;50.834;4.552;2022-09-13T13:25:29;24.60;55.20
73254;DHT22;61474;50.834;4.552;2022-09-13T13:27:55;24.60;54.40
73254;DHT22;61474;50.834;4.552;2022-09-13T13:33:12;24.60;54.40
73254;DHT22;61474;50.834;4.552;2022-09-13T13:35:39;24.60;54.80
73254;DHT22;61474;50.834;4.552;2022-09-13T13:38:15;24.50;54.00
73254;DHT22;61474;50.834;4.552;2022-09-13T13:40:40;24.60;53.80
73254;DHT22;61474;50.834;4.552;2022-09-13T13:43:16;24.60;53.70
73254;DHT22;61474;50.834;4.552;2022-09-13T13:46:36;24.60;53.90
73254;DHT22;61474;50.834;4.552;2022-09-13T13:48:42;24.60;54.30
73254;DHT22;61474;50.834;4.552;2022-09-13T13:53:36;24.60;53.70
73254;DHT22;61474;50.834;4.552;2022-09-13T13:56:07;24.60;53.60
73254;DHT22;61474;50.834;4.552;2022-09-13T13:58:46;24.60;53.50
73254;DHT22;61474;50.834;4.552;2022-09-13T14:01:16;24.70;54.00
73254;DHT22;61474;50.834;4.552;2022-09-13T14:06:23;24.70;53.80
73254;DHT22;61474;50.834;4.552;2022-09-13T14:09:11;24.60;53.70
73254;DHT22;61474;50.834;4.552;2022-09-13T14:14:22;24.70;53.60
73254;DHT22;61474;50.834;4.552;2022-09-13T14:24:37;24.70;53.60
73254;DHT22;61474;50.834;4.552;2022-09-13T14:27:04;24.70;54.20
73254;DHT22;61474;50.834;4.552;2022-09-13T14:29:29;24.70;53.80
73254;DHT22;61474;50.834;4.552;2022-09-13T14:32:05;24.70;53.40
73254;DHT22;61474;50.834;4.552;2022-09-13T14:34:32;24.60;53.70
73254;DHT22;61474;50.834;4.552;2022-09-13T14:36:59;24.70;53.30
73254;DHT22;61474;50.834;4.552;2022-09-13T14:39:26;24.70;53.50
73254;DHT22;61474;50.834;4.552;2022-09-13T14:42:01;24.70;54.10
73254;DHT22;61474;50.834;4.552;2022-09-13T14:44:31;24.70;53.60
73254;DHT22;61474;50.834;4.552;2022-09-13T14:49:38;24.70;52.90
73254;DHT22;61474;50.834;4.552;2022-09-13T14:52:07;24.70;53.30
73254;DHT22;61474;50.834;4.552;2022-09-13T14:54:35;24.70;52.50
73254;DHT22;61474;50.834;4.552;2022-09-13T14:57:02;24.70;52.60
73254;DHT22;61474;50.834;4.552;2022-09-13T14:59:33;24.70;52.50
73254;DHT22;61474;50.834;4.552;2022-09-13T15:02:04;24.70;52.90
73254;DHT22;61474;50.834;4.552;2022-09-13T15:04:30;24.70;52.60
73254;DHT22;61474;50.834;4.552;2022-09-13T15:07:04;24.70;52.70
73254;DHT22;61474;50.834;4.552;2022-09-13T15:09:30;24.70;52.30
73254;DHT22;61474;50.834;4.552;2022-09-13T15:11:57;24.70;52.70
73254;DHT22;61474;50.834;4.552;2022-09-13T15:14:24;24.70;52.20
73254;DHT22;61474;50.834;4.552;2022-09-13T15:16:59;24.70;52.20
73254;DHT22;61474;50.834;4.552;2022-09-13T15:22:03;24.80;52.20
73254;DHT22;61474;50.834;4.552;2022-09-13T15:24:30;24.70;52.00
73254;DHT22;61474;50.834;4.552;2022-09-13T15:27:00;24.80;52.50
73254;DHT22;61474;50.834;4.552;2022-09-13T15:29:26;24.80;52.30
73254;DHT22;61474;50.834;4.552;2022-09-13T15:31:57;24.80;52.30
73254;DHT22;61474;50.834;4.552;2022-09-13T15:34:22;24.80;52.30
73254;DHT22;61474;50.834;4.552;2022-09-13T15:42:07;24.80;52.70
73254;DHT22;61474;50.834;4.552;2022-09-13T15:44:33;24.80;52.50
73254;DHT22;61474;50.834;4.552;2022-09-13T15:46:59;24.80;52.20
73254;DHT22;61474;50.834;4.552;2022-09-13T15:49:29;24.80;52.20
73254;DHT22;61474;50.834;4.552;2022-09-13T15:51:56;24.80;52.20
73254;DHT22;61474;50.834;4.552;2022-09-13T15:54:22;24.80;52.20
73254;DHT22;61474;50.834;4.552;2022-09-13T15:56:49;24.80;52.50
73254;DHT22;61474;50.834;4.552;2022-09-13T15:59:19;24.90;51.90
73254;DHT22;61474;50.834;4.552;2022-09-13T16:01:46;24.90;51.90
73254;DHT22;61474;50.834;4.552;2022-09-13T16:04:11;24.80;51.90
73254;DHT22;61474;50.834;4.552;2022-09-13T16:06:37;24.80;52.20
73254;DHT22;61474;50.834;4.552;2022-09-13T16:09:15;24.80;51.90
73254;DHT22;61474;50.834;4.552;2022-09-13T16:11:41;24.80;52.20
73254;DHT22;61474;50.834;4.552;2022-09-13T16:14:07;24.80;52.40
73254;DHT22;61474;50.834;4.552;2022-09-13T16:16:32;24.80;52.50
73254;DHT22;61474;50.834;4.552;2022-09-13T16:18:57;24.80;52.00
73254;DHT22;61474;50.834;4.552;2022-09-13T16:21:23;24.80;52.10
73254;DHT22;61474;50.834;4.552;2022-09-13T16:23:48;24.80;51.80
73254;DHT22;61474;50.834;4.552;2022-09-13T16:26:14;24.80;52.60
73254;DHT22;61474;50.834;4.552;2022-09-13T16:28:39;24.70;51.90
73254;DHT22;61474;50.834;4.552;2022-09-13T16:31:05;24.80;52.10
73254;DHT22;61474;50.834;4.552;2022-09-13T16:33:30;24.70;51.90
73254;DHT22;61474;50.834;4.552;2022-09-13T16:35:56;24.80;52.10
73254;DHT22;61474;50.834;4.552;2022-09-13T16:38:21;24.80;52.50
73254;DHT22;61474;50.834;4.552;2022-09-13T16:40:47;24.90;51.90
73254;DHT22;61474;50.834;4.552;2022-09-13T16:43:13;24.90;52.00
73254;DHT22;61474;50.834;4.552;2022-09-13T16:45:39;25.00;52.20
73254;DHT22;61474;50.834;4.552;2022-09-13T16:48:05;25.00;52.00
73254;DHT22;61474;50.834;4.552;2022-09-13T16:50:30;25.00;52.80
73254;DHT22;61474;50.834;4.552;2022-09-13T16:52:56;24.90;53.00
73254;DHT22;61474;50.834;4.552;2022-09-13T16:55:21;24.90;52.90
73254;DHT22;61474;50.834;4.552;2022-09-13T16:57:48;24.90;52.70
73254;DHT22;61474;50.834;4.552;2022-09-13T17:00:16;24.90;52.70
73254;DHT22;61474;50.834;4.552;2022-09-13T17:02:44;25.00;52.50
73254;DHT22;61474;50.834;4.552;2022-09-13T17:05:10;25.00;52.70
73254;DHT22;61474;50.834;4.552;2022-09-13T17:07:37;25.00;53.10
73254;DHT22;61474;50.834;4.552;2022-09-13T17:10:04;24.90;52.80
73254;DHT22;61474;50.834;4.552;2022-09-13T17:12:30;24.90;53.40
73254;DHT22;61474;50.834;4.552;2022-09-13T17:14:55;24.90;53.50
73254;DHT22;61474;50.834;4.552;2022-09-13T17:17:21;24.90;53.50
73254;DHT22;61474;50.834;4.552;2022-09-13T17:19:47;25.00;53.60
73254;DHT22;61474;50.834;4.552;2022-09-13T17:22:13;24.90;53.90
73254;DHT22;61474;50.834;4.552;2022-09-13T17:24:38;24.90;53.30
73254;DHT22;61474;50.834;4.552;2022-09-13T17:27:05;24.90;53.90
73254;DHT22;61474;50.834;4.552;2022-09-13T17:29:31;24.90;53.70
73254;DHT22;61474;50.834;4.552;2022-09-13T17:31:57;24.90;53.70
73254;DHT22;61474;50.834;4.552;2022-09-13T17:34:23;24.90;53.90
73254;DHT22;61474;50.834;4.552;2022-09-13T17:36:49;24.90;53.60
73254;DHT22;61474;50.834;4.552;2022-09-13T17:39:14;24.90;54.00
73254;DHT22;61474;50.834;4.552;2022-09-13T17:41:39;24.90;53.70
73254;DHT22;61474;50.834;4.552;2022-09-13T17:44:05;24.90;53.80
73254;DHT22;61474;50.834;4.552;2022-09-13T17:46:30;24.90;53.60
73254;DHT22;61474;50.834;4.552;2022-09-13T17:48:56;24.90;53.70
73254;DHT22;61474;50.834;4.552;2022-09-13T17:51:23;24.90;54.20
73254;DHT22;61474;50.834;4.552;2022-09-13T17:53:51;24.90;54.30
73254;DHT22;61474;50.834;4.552;2022-09-13T17:56:26;24.90;54.50
73254;DHT22;61474;50.834;4.552;2022-09-13T17:58:55;24.90;54.10
73254;DHT22;61474;50.834;4.552;2022-09-13T18:01:20;24.90;53.80
73254;DHT22;61474;50.834;4.552;2022-09-13T18:03:46;25.00;53.90
73254;DHT22;61474;50.834;4.552;2022-09-13T18:06:12;25.00;53.90
73254;DHT22;61474;50.834;4.552;2022-09-13T18:08:39;25.00;54.70
73254;DHT22;61474;50.834;4.552;2022-09-13T18:11:09;25.00;54.10
73254;DHT22;61474;50.834;4.552;2022-09-13T18:13:35;24.90;55.20
73254;DHT22;61474;50.834;4.552;2022-09-13T18:16:05;24.90;55.00
73254;DHT22;61474;50.834;4.552;2022-09-13T18:18:32;24.90;54.70
73254;DHT22;61474;50.834;4.552;2022-09-13T18:20:58;24.90;54.50
73254;DHT22;61474;50.834;4.552;2022-09-13T18:23:24;24.90;54.50
73254;DHT22;61474;50.834;4.552;2022-09-13T18:26:00;24.90;54.70
73254;DHT22;61474;50.834;4.552;2022-09-13T18:28:26;24.90;55.60
73254;DHT22;61474;50.834;4.552;2022-09-13T18:30:52;24.90;55.50
73254;DHT22;61474;50.834;4.552;2022-09-13T18:33:18;24.90;55.20
73254;DHT22;61474;50.834;4.552;2022-09-13T18:35:58;24.90;55.30